N4LN KPAE-CYVR
Flight info
| Callsign | N4LN |
|---|---|
| Flight time | 0h 38m |
| Altitude | 8000 |
| Route | CVV |
| Aircraft | AEST/L-SDFGRY/S |
Departure
| Time | 2026-05-08 03:19 |
|---|---|
| Airport | Seattle Paine Field International Airport (KPAE) |
Arrival
| Time | 2026-05-08 03:58 |
|---|---|
| Airport | Vancouver International Airport (CYVR) |
| Time | Latitude | Longitude | Altitude | Speed | Heading |
|---|---|---|---|---|---|
| 2026-05-08 02:57 | 47.90555 | -122.27709 | 568 ft | 0 kts | 315° |
| 2026-05-08 03:12 | 47.90555 | -122.27710 | 573 ft | 0 kts | 315° |
| 2026-05-08 03:14 | 47.90558 | -122.27773 | 564 ft | 7 kts | 298° |
| 2026-05-08 03:14 | 47.90611 | -122.27858 | 564 ft | 18 kts | 309° |
| 2026-05-08 03:15 | 47.90723 | -122.28028 | 564 ft | 27 kts | 317° |
| 2026-05-08 03:15 | 47.90838 | -122.28218 | 566 ft | 25 kts | 304° |
| 2026-05-08 03:15 | 47.90960 | -122.28332 | 565 ft | 19 kts | 339° |
| 2026-05-08 03:15 | 47.91069 | -122.28341 | 567 ft | 14 kts | 1° |
| 2026-05-08 03:16 | 47.91173 | -122.28341 | 564 ft | 16 kts | 1° |
| 2026-05-08 03:16 | 47.91315 | -122.28352 | 568 ft | 20 kts | 358° |
| 2026-05-08 03:16 | 47.91436 | -122.28357 | 564 ft | 16 kts | 354° |
| 2026-05-08 03:16 | 47.91670 | -122.28360 | 569 ft | 45 kts | 2° |
| 2026-05-08 03:17 | 47.91947 | -122.28391 | 566 ft | 35 kts | 359° |
| 2026-05-08 03:17 | 47.92137 | -122.28427 | 564 ft | 10 kts | 345° |
| 2026-05-08 03:17 | 47.92157 | -122.28449 | 568 ft | 0 kts | 278° |
| 2026-05-08 03:17 | 47.92157 | -122.28452 | 568 ft | 0 kts | 278° |
| 2026-05-08 03:18 | 47.92132 | -122.28579 | 566 ft | 17 kts | 207° |
| 2026-05-08 03:18 | 47.91869 | -122.28576 | 564 ft | 78 kts | 179° |
| 2026-05-08 03:18 | 47.91187 | -122.28554 | 663 ft | 109 kts | 176° |
| 2026-05-08 03:18 | 47.90356 | -122.28526 | 882 ft | 135 kts | 179° |
| 2026-05-08 03:19 | 47.89292 | -122.28502 | 912 ft | 171 kts | 178° |
| 2026-05-08 03:19 | 47.88078 | -122.28446 | 1163 ft | 183 kts | 178° |
| 2026-05-08 03:19 | 47.86794 | -122.28394 | 1460 ft | 186 kts | 178° |
| 2026-05-08 03:19 | 47.85497 | -122.28347 | 1789 ft | 186 kts | 178° |
| 2026-05-08 03:20 | 47.84206 | -122.28293 | 2130 ft | 185 kts | 178° |
| 2026-05-08 03:20 | 47.82918 | -122.28228 | 2461 ft | 185 kts | 178° |
| 2026-05-08 03:20 | 47.81634 | -122.28154 | 2788 ft | 185 kts | 178° |
| 2026-05-08 03:20 | 47.80368 | -122.28071 | 3124 ft | 183 kts | 178° |
| 2026-05-08 03:21 | 47.79095 | -122.27980 | 3445 ft | 183 kts | 178° |
| 2026-05-08 03:21 | 47.77822 | -122.27895 | 3759 ft | 183 kts | 178° |
| 2026-05-08 03:21 | 47.76550 | -122.27809 | 4070 ft | 183 kts | 178° |
| 2026-05-08 03:21 | 47.75285 | -122.27715 | 4428 ft | 180 kts | 178° |
| 2026-05-08 03:22 | 47.74036 | -122.27585 | 4746 ft | 180 kts | 172° |
| 2026-05-08 03:22 | 47.72860 | -122.26968 | 5045 ft | 180 kts | 151° |
| 2026-05-08 03:22 | 47.71894 | -122.25785 | 5307 ft | 182 kts | 131° |
| 2026-05-08 03:22 | 47.71234 | -122.24163 | 5531 ft | 186 kts | 112° |
| 2026-05-08 03:23 | 47.70958 | -122.22289 | 5771 ft | 187 kts | 94° |
| 2026-05-08 03:23 | 47.71147 | -122.20411 | 6000 ft | 189 kts | 66° |
| 2026-05-08 03:23 | 47.71965 | -122.18931 | 6257 ft | 187 kts | 33° |
| 2026-05-08 03:23 | 47.73177 | -122.18317 | 6517 ft | 185 kts | 0° |
| 2026-05-08 03:24 | 47.74401 | -122.18741 | 6762 ft | 180 kts | 327° |
| 2026-05-08 03:24 | 47.75303 | -122.19979 | 7015 ft | 176 kts | 308° |
| 2026-05-08 03:24 | 47.76096 | -122.21352 | 7238 ft | 174 kts | 309° |
| 2026-05-08 03:24 | 47.76975 | -122.22593 | 7426 ft | 176 kts | 321° |
| 2026-05-08 03:25 | 47.78048 | -122.23474 | 7601 ft | 178 kts | 338° |
| 2026-05-08 03:25 | 47.79249 | -122.23939 | 7812 ft | 178 kts | 346° |
| 2026-05-08 03:25 | 47.80460 | -122.24290 | 8013 ft | 178 kts | 347° |
| 2026-05-08 03:25 | 47.81656 | -122.24639 | 8194 ft | 177 kts | 346° |
| 2026-05-08 03:26 | 47.82863 | -122.25004 | 8346 ft | 178 kts | 347° |
| 2026-05-08 03:26 | 47.84078 | -122.25370 | 8486 ft | 179 kts | 347° |
| 2026-05-08 03:26 | 47.85298 | -122.25739 | 8633 ft | 179 kts | 347° |
| 2026-05-08 03:26 | 47.86517 | -122.26110 | 8776 ft | 179 kts | 347° |
| 2026-05-08 03:27 | 47.87738 | -122.26482 | 8909 ft | 179 kts | 347° |
| 2026-05-08 03:27 | 47.88956 | -122.26853 | 9043 ft | 179 kts | 346° |
| 2026-05-08 03:27 | 47.90172 | -122.27224 | 9178 ft | 179 kts | 347° |
| 2026-05-08 03:27 | 47.91371 | -122.27589 | 9310 ft | 178 kts | 346° |
| 2026-05-08 03:28 | 47.92586 | -122.27957 | 9475 ft | 176 kts | 347° |
| 2026-05-08 03:28 | 47.93774 | -122.28296 | 9659 ft | 173 kts | 347° |
| 2026-05-08 03:28 | 47.94943 | -122.28631 | 9844 ft | 170 kts | 347° |
| 2026-05-08 03:28 | 47.96099 | -122.28964 | 10005 ft | 168 kts | 347° |
| 2026-05-08 03:29 | 47.97259 | -122.29297 | 10025 ft | 174 kts | 347° |
| 2026-05-08 03:29 | 47.98473 | -122.29648 | 9984 ft | 181 kts | 347° |
| 2026-05-08 03:29 | 47.99726 | -122.30010 | 9985 ft | 185 kts | 347° |
| 2026-05-08 03:29 | 48.00983 | -122.30373 | 9982 ft | 188 kts | 347° |
| 2026-05-08 03:30 | 48.03577 | -122.31122 | 9982 ft | 191 kts | 347° |
| 2026-05-08 03:30 | 48.06208 | -122.31883 | 9976 ft | 194 kts | 347° |
| 2026-05-08 03:31 | 48.08867 | -122.32654 | 9983 ft | 196 kts | 347° |
| 2026-05-08 03:31 | 48.11580 | -122.33444 | 9986 ft | 200 kts | 348° |
| 2026-05-08 03:32 | 48.12951 | -122.33839 | 9986 ft | 201 kts | 348° |
| 2026-05-08 03:32 | 48.14307 | -122.34231 | 9984 ft | 201 kts | 348° |
| 2026-05-08 03:32 | 48.15682 | -122.34631 | 9983 ft | 201 kts | 348° |
| 2026-05-08 03:32 | 48.17060 | -122.35031 | 9983 ft | 202 kts | 348° |
| 2026-05-08 03:33 | 48.18446 | -122.35435 | 9964 ft | 203 kts | 348° |
| 2026-05-08 03:33 | 48.19830 | -122.35838 | 9974 ft | 202 kts | 348° |
| 2026-05-08 03:33 | 48.21213 | -122.36242 | 9980 ft | 203 kts | 348° |
| 2026-05-08 03:33 | 48.22594 | -122.36643 | 9974 ft | 203 kts | 348° |
| 2026-05-08 03:34 | 48.23990 | -122.37049 | 9961 ft | 203 kts | 348° |
| 2026-05-08 03:34 | 48.25360 | -122.37447 | 9977 ft | 203 kts | 348° |
| 2026-05-08 03:34 | 48.26749 | -122.37850 | 9975 ft | 203 kts | 348° |
| 2026-05-08 03:34 | 48.28129 | -122.38255 | 9978 ft | 202 kts | 348° |
| 2026-05-08 03:35 | 48.29504 | -122.38659 | 9981 ft | 202 kts | 348° |
| 2026-05-08 03:35 | 48.30888 | -122.39065 | 9971 ft | 203 kts | 348° |
| 2026-05-08 03:35 | 48.32463 | -122.39525 | 9964 ft | 202 kts | 348° |
| 2026-05-08 03:35 | 48.33838 | -122.39928 | 9971 ft | 202 kts | 348° |
| 2026-05-08 03:36 | 48.35219 | -122.40333 | 9966 ft | 202 kts | 348° |
| 2026-05-08 03:36 | 48.36598 | -122.40737 | 9967 ft | 202 kts | 348° |
| 2026-05-08 03:36 | 48.37976 | -122.41141 | 9966 ft | 202 kts | 348° |
| 2026-05-08 03:36 | 48.39355 | -122.41545 | 9965 ft | 202 kts | 348° |
| 2026-05-08 03:37 | 48.40734 | -122.41950 | 9966 ft | 202 kts | 348° |
| 2026-05-08 03:37 | 48.42112 | -122.42355 | 9967 ft | 202 kts | 348° |
| 2026-05-08 03:37 | 48.43471 | -122.42754 | 9969 ft | 202 kts | 348° |
| 2026-05-08 03:37 | 48.44852 | -122.43160 | 9963 ft | 202 kts | 348° |
| 2026-05-08 03:38 | 48.46233 | -122.43567 | 9960 ft | 202 kts | 348° |
| 2026-05-08 03:38 | 48.47612 | -122.43973 | 9966 ft | 202 kts | 348° |
| 2026-05-08 03:38 | 48.48989 | -122.44378 | 9970 ft | 202 kts | 348° |
| 2026-05-08 03:38 | 48.50369 | -122.44785 | 9968 ft | 202 kts | 348° |
| 2026-05-08 03:39 | 48.51749 | -122.45194 | 9979 ft | 202 kts | 348° |
| 2026-05-08 03:39 | 48.53129 | -122.45600 | 9974 ft | 202 kts | 348° |
| 2026-05-08 03:39 | 48.54505 | -122.46004 | 9968 ft | 202 kts | 348° |
| 2026-05-08 03:39 | 48.55893 | -122.46414 | 9955 ft | 203 kts | 348° |
| 2026-05-08 03:40 | 48.57273 | -122.46823 | 9963 ft | 202 kts | 348° |
| 2026-05-08 03:40 | 48.58634 | -122.47226 | 9965 ft | 202 kts | 348° |
| 2026-05-08 03:40 | 48.60010 | -122.47632 | 9969 ft | 202 kts | 348° |
| 2026-05-08 03:40 | 48.61390 | -122.48041 | 9962 ft | 203 kts | 348° |
| 2026-05-08 03:41 | 48.62780 | -122.48453 | 9963 ft | 204 kts | 348° |
| 2026-05-08 03:41 | 48.64170 | -122.48865 | 9962 ft | 204 kts | 348° |
| 2026-05-08 03:41 | 48.65565 | -122.49278 | 9951 ft | 205 kts | 348° |
| 2026-05-08 03:41 | 48.66961 | -122.49691 | 9962 ft | 204 kts | 348° |
| 2026-05-08 03:42 | 48.68354 | -122.50104 | 9955 ft | 204 kts | 348° |
| 2026-05-08 03:42 | 48.69749 | -122.50519 | 9955 ft | 204 kts | 347° |
| 2026-05-08 03:42 | 48.71041 | -122.51281 | 9962 ft | 203 kts | 327° |
| 2026-05-08 03:42 | 48.72078 | -122.52719 | 9944 ft | 202 kts | 308° |
| 2026-05-08 03:43 | 48.72946 | -122.54378 | 9966 ft | 200 kts | 307° |
| 2026-05-08 03:43 | 48.73804 | -122.56042 | 9961 ft | 201 kts | 306° |
| 2026-05-08 03:43 | 48.74659 | -122.57717 | 9959 ft | 201 kts | 306° |
| 2026-05-08 03:43 | 48.75516 | -122.59392 | 9954 ft | 201 kts | 306° |
| 2026-05-08 03:44 | 48.76377 | -122.61066 | 9958 ft | 201 kts | 306° |
| 2026-05-08 03:44 | 48.77300 | -122.62656 | 9899 ft | 204 kts | 320° |
| 2026-05-08 03:44 | 48.78635 | -122.63590 | 9524 ft | 220 kts | 345° |
| 2026-05-08 03:44 | 48.80140 | -122.64184 | 9119 ft | 229 kts | 344° |
| 2026-05-08 03:45 | 48.81645 | -122.64886 | 8868 ft | 229 kts | 340° |
| 2026-05-08 03:45 | 48.83160 | -122.65719 | 8636 ft | 234 kts | 339° |
| 2026-05-08 03:45 | 48.84690 | -122.66588 | 8423 ft | 236 kts | 339° |
| 2026-05-08 03:45 | 48.86246 | -122.67453 | 8114 ft | 238 kts | 340° |
| 2026-05-08 03:46 | 48.87811 | -122.68313 | 7819 ft | 241 kts | 339° |
| 2026-05-08 03:46 | 48.89389 | -122.69186 | 7549 ft | 237 kts | 339° |
| 2026-05-08 03:46 | 48.90872 | -122.70007 | 7263 ft | 231 kts | 339° |
| 2026-05-08 03:46 | 48.92402 | -122.70855 | 7038 ft | 237 kts | 339° |
| 2026-05-08 03:47 | 48.93950 | -122.71713 | 6809 ft | 236 kts | 339° |
| 2026-05-08 03:47 | 48.95484 | -122.72565 | 6590 ft | 236 kts | 339° |
| 2026-05-08 03:47 | 48.97043 | -122.73432 | 6385 ft | 240 kts | 339° |
| 2026-05-08 03:47 | 48.98621 | -122.74309 | 6154 ft | 243 kts | 339° |
| 2026-05-08 03:48 | 49.00213 | -122.75194 | 5950 ft | 244 kts | 340° |
| 2026-05-08 03:48 | 49.01807 | -122.76082 | 5763 ft | 244 kts | 340° |
| 2026-05-08 03:48 | 49.03409 | -122.76974 | 5470 ft | 248 kts | 340° |
| 2026-05-08 03:48 | 49.05028 | -122.77876 | 5094 ft | 253 kts | 340° |
| 2026-05-08 03:49 | 49.06720 | -122.78613 | 4730 ft | 256 kts | 354° |
| 2026-05-08 03:49 | 49.08477 | -122.78311 | 4371 ft | 256 kts | 19° |
| 2026-05-08 03:49 | 49.10003 | -122.76947 | 4042 ft | 256 kts | 43° |
| 2026-05-08 03:49 | 49.10817 | -122.75445 | 4439 ft | 253 kts | 60° |
| 2026-05-08 03:50 | 49.11224 | -122.73957 | 4121 ft | 161 kts | 87° |
| 2026-05-08 03:50 | 49.11461 | -122.72329 | 4241 ft | 160 kts | 51° |
| 2026-05-08 03:50 | 49.12405 | -122.71567 | 4476 ft | 154 kts | 6° |
| 2026-05-08 03:50 | 49.13471 | -122.71923 | 4344 ft | 174 kts | 331° |
| 2026-05-08 03:51 | 49.14534 | -122.73021 | 4061 ft | 194 kts | 322° |
| 2026-05-08 03:51 | 49.15619 | -122.74365 | 3786 ft | 207 kts | 318° |
| 2026-05-08 03:51 | 49.16700 | -122.75900 | 3471 ft | 217 kts | 314° |
| 2026-05-08 03:51 | 49.17627 | -122.77727 | 3192 ft | 221 kts | 295° |
| 2026-05-08 03:52 | 49.17936 | -122.80031 | 2892 ft | 224 kts | 267° |
| 2026-05-08 03:52 | 49.17537 | -122.82296 | 2623 ft | 222 kts | 241° |
| 2026-05-08 03:52 | 49.16706 | -122.84283 | 2329 ft | 223 kts | 234° |
| 2026-05-08 03:52 | 49.15827 | -122.86193 | 2043 ft | 222 kts | 234° |
| 2026-05-08 03:53 | 49.15199 | -122.88328 | 1716 ft | 224 kts | 258° |
| 2026-05-08 03:53 | 49.15376 | -122.90418 | 2436 ft | 178 kts | 284° |
| 2026-05-08 03:53 | 49.15760 | -122.92163 | 2668 ft | 178 kts | 287° |
| 2026-05-08 03:53 | 49.15970 | -122.94070 | 2653 ft | 185 kts | 275° |
| 2026-05-08 03:54 | 49.16166 | -122.96014 | 2688 ft | 182 kts | 278° |
| 2026-05-08 03:54 | 49.16382 | -122.97926 | 2501 ft | 186 kts | 279° |
| 2026-05-08 03:54 | 49.16607 | -122.99883 | 2251 ft | 188 kts | 278° |
| 2026-05-08 03:54 | 49.16839 | -123.01880 | 1981 ft | 194 kts | 278° |
| 2026-05-08 03:55 | 49.17066 | -123.03851 | 1692 ft | 181 kts | 278° |
| 2026-05-08 03:55 | 49.17271 | -123.05639 | 1430 ft | 168 kts | 278° |
| 2026-05-08 03:55 | 49.17458 | -123.07256 | 1176 ft | 135 kts | 277° |
| 2026-05-08 03:55 | 49.17602 | -123.08516 | 1016 ft | 107 kts | 277° |
| 2026-05-08 03:56 | 49.17731 | -123.09661 | 922 ft | 113 kts | 277° |
| 2026-05-08 03:56 | 49.17874 | -123.10887 | 724 ft | 118 kts | 277° |
| 2026-05-08 03:56 | 49.18017 | -123.12122 | 559 ft | 117 kts | 277° |
| 2026-05-08 03:56 | 49.18156 | -123.13334 | 412 ft | 114 kts | 277° |
| 2026-05-08 03:57 | 49.18302 | -123.14464 | 262 ft | 109 kts | 277° |
| 2026-05-08 03:57 | 49.18434 | -123.15575 | 121 ft | 104 kts | 274° |
| 2026-05-08 03:57 | 49.18542 | -123.16622 | 22 ft | 100 kts | 273° |
| 2026-05-08 03:57 | 49.18639 | -123.17545 | 7 ft | 70 kts | 281° |
| 2026-05-08 03:58 | 49.18717 | -123.18107 | 5 ft | 36 kts | 302° |
| 2026-05-08 03:58 | 49.18832 | -123.18291 | 4 ft | 15 kts | 326° |
| 2026-05-08 03:58 | 49.18875 | -123.18338 | 5 ft | 0 kts | 313° |
| 2026-05-08 03:59 | 49.18919 | -123.18396 | 5 ft | 11 kts | 329° |
| 2026-05-08 04:00 | 49.18953 | -123.18365 | 5 ft | 7 kts | 113° |
| 2026-05-08 04:00 | 49.18933 | -123.18226 | 5 ft | 17 kts | 102° |
| 2026-05-08 04:00 | 49.18872 | -123.18094 | 5 ft | 17 kts | 174° |
| 2026-05-08 04:00 | 49.18805 | -123.18108 | 4 ft | 0 kts | 190° |
| 2026-05-08 04:02 | 49.18759 | -123.18121 | 4 ft | 15 kts | 195° |
| 2026-05-08 04:02 | 49.18604 | -123.18159 | 5 ft | 21 kts | 192° |
| 2026-05-08 04:02 | 49.18500 | -123.18191 | 4 ft | 9 kts | 143° |
| 2026-05-08 04:02 | 49.18506 | -123.18087 | 5 ft | 15 kts | 98° |
| 2026-05-08 04:03 | 49.18488 | -123.17936 | 5 ft | 14 kts | 101° |
| 2026-05-08 04:03 | 49.18436 | -123.17606 | 5 ft | 8 kts | 177° |
| 2026-05-08 04:03 | 49.18414 | -123.17621 | 5 ft | 0 kts | 253° |